sensor_id;sensor_type;location;lat;lon;timestamp;P1;durP1;ratioP1;P2;durP2;ratioP2
66585;SDS011;53444;45.822;16.092;2023-07-02T00:01:30;8.57;;;5.97;;
66585;SDS011;53444;45.822;16.092;2023-07-02T00:03:58;8.43;;;5.72;;
66585;SDS011;53444;45.822;16.092;2023-07-02T00:06:25;9.07;;;5.72;;
66585;SDS011;53444;45.822;16.092;2023-07-02T00:08:52;8.45;;;5.68;;
66585;SDS011;53444;45.822;16.092;2023-07-02T00:11:19;17.87;;;5.83;;
66585;SDS011;53444;45.822;16.092;2023-07-02T00:13:45;8.07;;;5.20;;
66585;SDS011;53444;45.822;16.092;2023-07-02T00:16:12;9.02;;;5.35;;
66585;SDS011;53444;45.822;16.092;2023-07-02T00:18:38;10.00;;;5.93;;
66585;SDS011;53444;45.822;16.092;2023-07-02T00:21:06;8.23;;;5.15;;
66585;SDS011;53444;45.822;16.092;2023-07-02T00:23:33;9.33;;;5.77;;
66585;SDS011;53444;45.822;16.092;2023-07-02T00:25:59;8.40;;;5.53;;
66585;SDS011;53444;45.822;16.092;2023-07-02T00:28:26;10.38;;;5.93;;
66585;SDS011;53444;45.822;16.092;2023-07-02T00:30:52;7.30;;;4.85;;
66585;SDS011;53444;45.822;16.092;2023-07-02T00:33:19;7.03;;;4.97;;
66585;SDS011;53444;45.822;16.092;2023-07-02T00:35:46;8.23;;;4.80;;
66585;SDS011;53444;45.822;16.092;2023-07-02T00:38:13;8.25;;;5.40;;
66585;SDS011;53444;45.822;16.092;2023-07-02T00:40:40;8.00;;;5.40;;
66585;SDS011;53444;45.822;16.092;2023-07-02T00:43:07;9.10;;;5.20;;
66585;SDS011;53444;45.822;16.092;2023-07-02T00:45:38;10.75;;;4.60;;
66585;SDS011;53444;45.822;16.092;2023-07-02T00:48:05;9.63;;;5.80;;
66585;SDS011;53444;45.822;16.092;2023-07-02T00:50:31;9.40;;;5.45;;
66585;SDS011;53444;45.822;16.092;2023-07-02T00:52:58;7.07;;;4.90;;
66585;SDS011;53444;45.822;16.092;2023-07-02T00:55:26;8.23;;;5.03;;
66585;SDS011;53444;45.822;16.092;2023-07-02T00:57:53;8.75;;;5.05;;
66585;SDS011;53444;45.822;16.092;2023-07-02T01:00:21;7.67;;;4.30;;
66585;SDS011;53444;45.822;16.092;2023-07-02T01:02:52;8.23;;;5.10;;
66585;SDS011;53444;45.822;16.092;2023-07-02T01:05:22;7.18;;;5.28;;
66585;SDS011;53444;45.822;16.092;2023-07-02T01:07:48;9.65;;;4.85;;
66585;SDS011;53444;45.822;16.092;2023-07-02T01:10:15;9.52;;;4.60;;
66585;SDS011;53444;45.822;16.092;2023-07-02T01:12:43;8.83;;;4.87;;
66585;SDS011;53444;45.822;16.092;2023-07-02T01:15:11;13.90;;;5.22;;
66585;SDS011;53444;45.822;16.092;2023-07-02T01:17:38;8.25;;;4.72;;
66585;SDS011;53444;45.822;16.092;2023-07-02T01:20:08;10.05;;;5.05;;
66585;SDS011;53444;45.822;16.092;2023-07-02T01:22:36;8.10;;;4.68;;
66585;SDS011;53444;45.822;16.092;2023-07-02T01:25:03;7.87;;;4.93;;
66585;SDS011;53444;45.822;16.092;2023-07-02T01:27:30;6.82;;;4.30;;
66585;SDS011;53444;45.822;16.092;2023-07-02T01:29:57;7.28;;;4.70;;
66585;SDS011;53444;45.822;16.092;2023-07-02T01:32:25;8.35;;;5.10;;
66585;SDS011;53444;45.822;16.092;2023-07-02T01:34:51;7.03;;;4.28;;
66585;SDS011;53444;45.822;16.092;2023-07-02T01:37:19;9.43;;;4.80;;
66585;SDS011;53444;45.822;16.092;2023-07-02T01:39:46;7.68;;;4.93;;
66585;SDS011;53444;45.822;16.092;2023-07-02T01:42:14;8.48;;;5.18;;
66585;SDS011;53444;45.822;16.092;2023-07-02T01:44:42;8.82;;;5.10;;
66585;SDS011;53444;45.822;16.092;2023-07-02T01:47:09;8.68;;;5.72;;
66585;SDS011;53444;45.822;16.092;2023-07-02T01:49:36;9.10;;;5.40;;
66585;SDS011;53444;45.822;16.092;2023-07-02T01:52:03;8.15;;;5.10;;
66585;SDS011;53444;45.822;16.092;2023-07-02T01:54:32;8.98;;;5.07;;
66585;SDS011;53444;45.822;16.092;2023-07-02T01:57:00;6.18;;;4.13;;
66585;SDS011;53444;45.822;16.092;2023-07-02T01:59:27;11.52;;;5.35;;
66585;SDS011;53444;45.822;16.092;2023-07-02T02:01:53;7.70;;;5.17;;
66585;SDS011;53444;45.822;16.092;2023-07-02T02:04:20;9.90;;;5.28;;
66585;SDS011;53444;45.822;16.092;2023-07-02T02:06:47;7.43;;;4.70;;
66585;SDS011;53444;45.822;16.092;2023-07-02T02:09:13;9.75;;;4.60;;
66585;SDS011;53444;45.822;16.092;2023-07-02T02:11:42;9.60;;;5.20;;
66585;SDS011;53444;45.822;16.092;2023-07-02T02:14:09;8.68;;;4.30;;
66585;SDS011;53444;45.822;16.092;2023-07-02T02:16:36;7.25;;;4.35;;
66585;SDS011;53444;45.822;16.092;2023-07-02T02:19:02;6.93;;;4.28;;
66585;SDS011;53444;45.822;16.092;2023-07-02T02:21:29;8.23;;;4.90;;
66585;SDS011;53444;45.822;16.092;2023-07-02T02:23:56;9.15;;;5.13;;
66585;SDS011;53444;45.822;16.092;2023-07-02T02:26:22;8.37;;;4.83;;
66585;SDS011;53444;45.822;16.092;2023-07-02T02:28:51;11.10;;;4.88;;
66585;SDS011;53444;45.822;16.092;2023-07-02T02:31:18;8.05;;;4.57;;
66585;SDS011;53444;45.822;16.092;2023-07-02T02:33:45;7.30;;;4.47;;
66585;SDS011;53444;45.822;16.092;2023-07-02T02:36:11;7.68;;;4.40;;
66585;SDS011;53444;45.822;16.092;2023-07-02T02:38:38;8.47;;;4.53;;
66585;SDS011;53444;45.822;16.092;2023-07-02T02:41:05;8.50;;;4.80;;
66585;SDS011;53444;45.822;16.092;2023-07-02T02:43:33;8.68;;;5.13;;
66585;SDS011;53444;45.822;16.092;2023-07-02T02:46:01;8.48;;;4.63;;
66585;SDS011;53444;45.822;16.092;2023-07-02T02:48:28;10.88;;;5.25;;
66585;SDS011;53444;45.822;16.092;2023-07-02T02:50:54;8.27;;;4.50;;
66585;SDS011;53444;45.822;16.092;2023-07-02T02:53:21;7.78;;;4.80;;
66585;SDS011;53444;45.822;16.092;2023-07-02T02:55:47;9.80;;;5.03;;
66585;SDS011;53444;45.822;16.092;2023-07-02T02:58:14;10.68;;;5.20;;
66585;SDS011;53444;45.822;16.092;2023-07-02T03:00:41;8.18;;;4.50;;
66585;SDS011;53444;45.822;16.092;2023-07-02T03:03:11;10.63;;;4.93;;
66585;SDS011;53444;45.822;16.092;2023-07-02T03:05:38;8.63;;;4.75;;
66585;SDS011;53444;45.822;16.092;2023-07-02T03:08:05;8.70;;;4.80;;
66585;SDS011;53444;45.822;16.092;2023-07-02T03:10:31;8.05;;;5.15;;
66585;SDS011;53444;45.822;16.092;2023-07-02T03:12:58;9.38;;;4.85;;
66585;SDS011;53444;45.822;16.092;2023-07-02T03:15:25;6.93;;;4.70;;
66585;SDS011;53444;45.822;16.092;2023-07-02T03:17:51;8.65;;;4.78;;
66585;SDS011;53444;45.822;16.092;2023-07-02T03:20:19;7.65;;;4.63;;
66585;SDS011;53444;45.822;16.092;2023-07-02T03:22:46;7.15;;;4.88;;
66585;SDS011;53444;45.822;16.092;2023-07-02T03:25:12;7.80;;;4.85;;
66585;SDS011;53444;45.822;16.092;2023-07-02T03:27:39;7.13;;;4.37;;
66585;SDS011;53444;45.822;16.092;2023-07-02T03:30:06;9.30;;;4.07;;
66585;SDS011;53444;45.822;16.092;2023-07-02T03:32:34;8.65;;;4.60;;
66585;SDS011;53444;45.822;16.092;2023-07-02T03:35:00;8.10;;;4.72;;
66585;SDS011;53444;45.822;16.092;2023-07-02T03:37:28;7.47;;;4.50;;
66585;SDS011;53444;45.822;16.092;2023-07-02T03:39:55;8.30;;;5.07;;
66585;SDS011;53444;45.822;16.092;2023-07-02T03:42:23;7.40;;;4.55;;
66585;SDS011;53444;45.822;16.092;2023-07-02T03:44:50;8.43;;;4.78;;
66585;SDS011;53444;45.822;16.092;2023-07-02T03:47:17;9.27;;;4.55;;
66585;SDS011;53444;45.822;16.092;2023-07-02T03:49:44;8.30;;;4.65;;
66585;SDS011;53444;45.822;16.092;2023-07-02T03:52:11;7.73;;;4.53;;
66585;SDS011;53444;45.822;16.092;2023-07-02T03:54:39;9.52;;;4.80;;
66585;SDS011;53444;45.822;16.092;2023-07-02T03:57:05;8.68;;;5.22;;
66585;SDS011;53444;45.822;16.092;2023-07-02T03:59:32;7.32;;;4.72;;
66585;SDS011;53444;45.822;16.092;2023-07-02T04:01:58;7.72;;;4.90;;
66585;SDS011;53444;45.822;16.092;2023-07-02T04:04:25;9.07;;;4.90;;
66585;SDS011;53444;45.822;16.092;2023-07-02T04:06:52;8.20;;;5.05;;
66585;SDS011;53444;45.822;16.092;2023-07-02T04:09:18;6.47;;;4.60;;
66585;SDS011;53444;45.822;16.092;2023-07-02T04:11:46;8.48;;;5.25;;
66585;SDS011;53444;45.822;16.092;2023-07-02T04:14:13;10.75;;;4.47;;
66585;SDS011;53444;45.822;16.092;2023-07-02T04:16:39;8.47;;;4.87;;
66585;SDS011;53444;45.822;16.092;2023-07-02T04:19:06;9.25;;;5.40;;
66585;SDS011;53444;45.822;16.092;2023-07-02T04:21:32;7.80;;;4.75;;
66585;SDS011;53444;45.822;16.092;2023-07-02T04:23:59;8.23;;;5.15;;
66585;SDS011;53444;45.822;16.092;2023-07-02T04:26:25;8.00;;;5.35;;
66585;SDS011;53444;45.822;16.092;2023-07-02T04:28:54;10.23;;;5.67;;
66585;SDS011;53444;45.822;16.092;2023-07-02T04:31:21;9.32;;;4.95;;
66585;SDS011;53444;45.822;16.092;2023-07-02T04:33:47;11.70;;;5.65;;
66585;SDS011;53444;45.822;16.092;2023-07-02T04:36:14;9.02;;;5.35;;
66585;SDS011;53444;45.822;16.092;2023-07-02T04:38:41;8.85;;;5.47;;
66585;SDS011;53444;45.822;16.092;2023-07-02T04:41:07;8.40;;;5.50;;
66585;SDS011;53444;45.822;16.092;2023-07-02T04:43:35;8.43;;;5.22;;
66585;SDS011;53444;45.822;16.092;2023-07-02T04:46:03;8.77;;;5.20;;
66585;SDS011;53444;45.822;16.092;2023-07-02T04:48:32;9.18;;;5.57;;
66585;SDS011;53444;45.822;16.092;2023-07-02T04:50:59;9.38;;;5.90;;
66585;SDS011;53444;45.822;16.092;2023-07-02T04:53:25;10.07;;;5.63;;
66585;SDS011;53444;45.822;16.092;2023-07-02T04:55:52;9.13;;;5.65;;
66585;SDS011;53444;45.822;16.092;2023-07-02T04:58:19;9.35;;;6.07;;
66585;SDS011;53444;45.822;16.092;2023-07-02T05:00:46;7.78;;;5.30;;
66585;SDS011;53444;45.822;16.092;2023-07-02T05:03:14;11.43;;;7.03;;
66585;SDS011;53444;45.822;16.092;2023-07-02T05:05:41;12.57;;;7.30;;
66585;SDS011;53444;45.822;16.092;2023-07-02T05:08:07;9.25;;;7.22;;
66585;SDS011;53444;45.822;16.092;2023-07-02T05:10:34;11.48;;;7.40;;
66585;SDS011;53444;45.822;16.092;2023-07-02T05:13:00;10.98;;;6.78;;
66585;SDS011;53444;45.822;16.092;2023-07-02T05:15:27;9.57;;;6.07;;
66585;SDS011;53444;45.822;16.092;2023-07-02T05:17:53;10.33;;;6.93;;
66585;SDS011;53444;45.822;16.092;2023-07-02T05:20:21;9.32;;;6.63;;
66585;SDS011;53444;45.822;16.092;2023-07-02T05:22:48;9.45;;;6.10;;
66585;SDS011;53444;45.822;16.092;2023-07-02T05:25:15;8.70;;;5.65;;
66585;SDS011;53444;45.822;16.092;2023-07-02T05:27:41;8.70;;;6.28;;
66585;SDS011;53444;45.822;16.092;2023-07-02T05:30:08;9.47;;;5.93;;
66585;SDS011;53444;45.822;16.092;2023-07-02T05:32:35;10.88;;;7.05;;
66585;SDS011;53444;45.822;16.092;2023-07-02T05:35:02;10.18;;;6.18;;
66585;SDS011;53444;45.822;16.092;2023-07-02T05:37:30;10.18;;;6.32;;
66585;SDS011;53444;45.822;16.092;2023-07-02T05:39:57;10.05;;;6.38;;
66585;SDS011;53444;45.822;16.092;2023-07-02T05:42:23;8.87;;;6.00;;
66585;SDS011;53444;45.822;16.092;2023-07-02T05:44:50;10.95;;;6.22;;
66585;SDS011;53444;45.822;16.092;2023-07-02T05:47:16;10.82;;;6.07;;
66585;SDS011;53444;45.822;16.092;2023-07-02T05:49:43;9.90;;;5.75;;
66585;SDS011;53444;45.822;16.092;2023-07-02T05:52:10;8.38;;;5.53;;
66585;SDS011;53444;45.822;16.092;2023-07-02T05:54:39;8.20;;;5.77;;
66585;SDS011;53444;45.822;16.092;2023-07-02T05:57:06;7.93;;;5.10;;
66585;SDS011;53444;45.822;16.092;2023-07-02T05:59:33;9.38;;;5.43;;
66585;SDS011;53444;45.822;16.092;2023-07-02T06:01:59;9.25;;;5.10;;
66585;SDS011;53444;45.822;16.092;2023-07-02T06:04:26;10.52;;;5.40;;
66585;SDS011;53444;45.822;16.092;2023-07-02T06:06:54;8.27;;;5.10;;
66585;SDS011;53444;45.822;16.092;2023-07-02T06:09:25;9.02;;;4.93;;
66585;SDS011;53444;45.822;16.092;2023-07-02T06:11:53;7.60;;;4.95;;
66585;SDS011;53444;45.822;16.092;2023-07-02T06:14:20;7.78;;;5.78;;
66585;SDS011;53444;45.822;16.092;2023-07-02T06:16:46;9.85;;;5.55;;
66585;SDS011;53444;45.822;16.092;2023-07-02T06:19:16;9.23;;;5.40;;
66585;SDS011;53444;45.822;16.092;2023-07-02T06:21:43;9.95;;;5.70;;
66585;SDS011;53444;45.822;16.092;2023-07-02T06:24:09;9.38;;;5.43;;
66585;SDS011;53444;45.822;16.092;2023-07-02T06:26:36;8.65;;;5.82;;
66585;SDS011;53444;45.822;16.092;2023-07-02T06:29:04;9.52;;;5.60;;
66585;SDS011;53444;45.822;16.092;2023-07-02T06:31:31;9.23;;;5.90;;
66585;SDS011;53444;45.822;16.092;2023-07-02T06:33:57;10.13;;;5.75;;
66585;SDS011;53444;45.822;16.092;2023-07-02T06:36:24;7.97;;;5.72;;
66585;SDS011;53444;45.822;16.092;2023-07-02T06:38:50;9.05;;;5.68;;
66585;SDS011;53444;45.822;16.092;2023-07-02T06:41:20;10.65;;;5.82;;
66585;SDS011;53444;45.822;16.092;2023-07-02T06:43:46;7.83;;;5.07;;
66585;SDS011;53444;45.822;16.092;2023-07-02T06:46:14;9.55;;;5.70;;
66585;SDS011;53444;45.822;16.092;2023-07-02T06:48:41;9.88;;;5.80;;
66585;SDS011;53444;45.822;16.092;2023-07-02T06:51:08;7.68;;;5.15;;
66585;SDS011;53444;45.822;16.092;2023-07-02T06:53:37;9.80;;;6.10;;
66585;SDS011;53444;45.822;16.092;2023-07-02T06:56:04;9.07;;;5.47;;
66585;SDS011;53444;45.822;16.092;2023-07-02T06:58:30;7.70;;;5.10;;
66585;SDS011;53444;45.822;16.092;2023-07-02T07:00:57;9.70;;;5.50;;
66585;SDS011;53444;45.822;16.092;2023-07-02T07:03:25;10.00;;;5.13;;
66585;SDS011;53444;45.822;16.092;2023-07-02T07:05:52;8.75;;;5.10;;
66585;SDS011;53444;45.822;16.092;2023-07-02T07:08:18;8.53;;;5.00;;
66585;SDS011;53444;45.822;16.092;2023-07-02T07:10:45;8.07;;;5.18;;
66585;SDS011;53444;45.822;16.092;2023-07-02T07:13:12;7.55;;;5.03;;
66585;SDS011;53444;45.822;16.092;2023-07-02T07:15:38;9.02;;;5.53;;
66585;SDS011;53444;45.822;16.092;2023-07-02T07:18:05;8.50;;;5.53;;
66585;SDS011;53444;45.822;16.092;2023-07-02T07:20:33;7.97;;;5.60;;
66585;SDS011;53444;45.822;16.092;2023-07-02T07:23:01;8.10;;;5.45;;
66585;SDS011;53444;45.822;16.092;2023-07-02T07:25:28;7.57;;;5.55;;
66585;SDS011;53444;45.822;16.092;2023-07-02T07:27:55;7.05;;;5.18;;
66585;SDS011;53444;45.822;16.092;2023-07-02T07:30:21;8.75;;;5.78;;
66585;SDS011;53444;45.822;16.092;2023-07-02T07:32:49;6.60;;;5.03;;
66585;SDS011;53444;45.822;16.092;2023-07-02T07:35:16;7.25;;;4.65;;
66585;SDS011;53444;45.822;16.092;2023-07-02T07:37:44;6.95;;;4.97;;
66585;SDS011;53444;45.822;16.092;2023-07-02T07:40:11;8.25;;;5.60;;
66585;SDS011;53444;45.822;16.092;2023-07-02T07:42:38;7.05;;;5.05;;
66585;SDS011;53444;45.822;16.092;2023-07-02T07:45:05;7.17;;;4.73;;
66585;SDS011;53444;45.822;16.092;2023-07-02T07:47:32;6.30;;;4.50;;
66585;SDS011;53444;45.822;16.092;2023-07-02T07:49:59;7.00;;;5.20;;
66585;SDS011;53444;45.822;16.092;2023-07-02T07:52:25;6.63;;;5.25;;
66585;SDS011;53444;45.822;16.092;2023-07-02T07:54:54;8.45;;;5.20;;
66585;SDS011;53444;45.822;16.092;2023-07-02T07:57:22;6.47;;;4.90;;
66585;SDS011;53444;45.822;16.092;2023-07-02T07:59:48;7.47;;;5.13;;
66585;SDS011;53444;45.822;16.092;2023-07-02T08:02:15;6.53;;;4.70;;
66585;SDS011;53444;45.822;16.092;2023-07-02T08:04:41;7.90;;;5.25;;
66585;SDS011;53444;45.822;16.092;2023-07-02T08:07:08;7.00;;;5.18;;
66585;SDS011;53444;45.822;16.092;2023-07-02T08:09:34;6.93;;;4.63;;
66585;SDS011;53444;45.822;16.092;2023-07-02T08:12:03;9.80;;;5.15;;
66585;SDS011;53444;45.822;16.092;2023-07-02T08:14:30;7.93;;;5.82;;
66585;SDS011;53444;45.822;16.092;2023-07-02T08:16:56;6.82;;;4.78;;
66585;SDS011;53444;45.822;16.092;2023-07-02T08:19:23;7.22;;;5.40;;
66585;SDS011;53444;45.822;16.092;2023-07-02T08:21:50;9.17;;;5.50;;
66585;SDS011;53444;45.822;16.092;2023-07-02T08:24:16;6.65;;;4.68;;
66585;SDS011;53444;45.822;16.092;2023-07-02T08:26:43;7.88;;;5.10;;
66585;SDS011;53444;45.822;16.092;2023-07-02T08:29:12;6.55;;;4.18;;
66585;SDS011;53444;45.822;16.092;2023-07-02T08:31:39;6.13;;;4.30;;
66585;SDS011;53444;45.822;16.092;2023-07-02T08:34:06;5.80;;;3.57;;
66585;SDS011;53444;45.822;16.092;2023-07-02T08:36:33;6.00;;;4.10;;
66585;SDS011;53444;45.822;16.092;2023-07-02T08:38:59;6.57;;;4.00;;
66585;SDS011;53444;45.822;16.092;2023-07-02T08:41:26;5.88;;;3.95;;
66585;SDS011;53444;45.822;16.092;2023-07-02T08:43:54;6.50;;;4.20;;
66585;SDS011;53444;45.822;16.092;2023-07-02T08:46:23;5.20;;;3.50;;
66585;SDS011;53444;45.822;16.092;2023-07-02T08:48:50;6.38;;;4.38;;
66585;SDS011;53444;45.822;16.092;2023-07-02T08:51:16;6.05;;;4.13;;
66585;SDS011;53444;45.822;16.092;2023-07-02T08:53:43;5.65;;;3.70;;
66585;SDS011;53444;45.822;16.092;2023-07-02T08:56:10;5.18;;;3.53;;
66585;SDS011;53444;45.822;16.092;2023-07-02T08:58:36;5.37;;;3.83;;
66585;SDS011;53444;45.822;16.092;2023-07-02T09:01:03;5.07;;;3.45;;
66585;SDS011;53444;45.822;16.092;2023-07-02T09:03:31;4.85;;;3.83;;
66585;SDS011;53444;45.822;16.092;2023-07-02T09:05:58;6.13;;;4.03;;
66585;SDS011;53444;45.822;16.092;2023-07-02T09:08:25;4.78;;;3.97;;
66585;SDS011;53444;45.822;16.092;2023-07-02T09:10:52;6.47;;;4.10;;
66585;SDS011;53444;45.822;16.092;2023-07-02T09:13:19;7.72;;;4.65;;
66585;SDS011;53444;45.822;16.092;2023-07-02T09:15:45;5.75;;;3.78;;
66585;SDS011;53444;45.822;16.092;2023-07-02T09:18:19;5.47;;;4.20;;
66585;SDS011;53444;45.822;16.092;2023-07-02T09:20:49;6.60;;;4.40;;
66585;SDS011;53444;45.822;16.092;2023-07-02T09:23:16;5.60;;;3.57;;
66585;SDS011;53444;45.822;16.092;2023-07-02T09:25:43;5.00;;;3.35;;
66585;SDS011;53444;45.822;16.092;2023-07-02T09:28:16;7.20;;;3.97;;
66585;SDS011;53444;45.822;16.092;2023-07-02T09:30:50;6.65;;;4.38;;
66585;SDS011;53444;45.822;16.092;2023-07-02T09:33:18;5.05;;;3.50;;
66585;SDS011;53444;45.822;16.092;2023-07-02T09:35:45;4.97;;;3.47;;
66585;SDS011;53444;45.822;16.092;2023-07-02T09:38:13;5.05;;;3.33;;
66585;SDS011;53444;45.822;16.092;2023-07-02T09:40:44;4.97;;;3.75;;
66585;SDS011;53444;45.822;16.092;2023-07-02T09:43:13;7.78;;;4.22;;
66585;SDS011;53444;45.822;16.092;2023-07-02T09:45:41;5.47;;;3.88;;
66585;SDS011;53444;45.822;16.092;2023-07-02T09:48:12;4.67;;;3.77;;
66585;SDS011;53444;45.822;16.092;2023-07-02T09:50:40;5.38;;;3.78;;
66585;SDS011;53444;45.822;16.092;2023-07-02T09:53:08;5.85;;;3.63;;
66585;SDS011;53444;45.822;16.092;2023-07-02T09:55:36;5.70;;;3.80;;
66585;SDS011;53444;45.822;16.092;2023-07-02T09:58:03;7.57;;;4.00;;
66585;SDS011;53444;45.822;16.092;2023-07-02T10:00:31;5.37;;;4.07;;
66585;SDS011;53444;45.822;16.092;2023-07-02T10:02:57;5.95;;;3.88;;
66585;SDS011;53444;45.822;16.092;2023-07-02T10:05:25;6.30;;;4.55;;
66585;SDS011;53444;45.822;16.092;2023-07-02T10:07:52;5.22;;;3.65;;
66585;SDS011;53444;45.822;16.092;2023-07-02T10:10:25;5.35;;;3.78;;
66585;SDS011;53444;45.822;16.092;2023-07-02T10:12:54;6.10;;;3.90;;
66585;SDS011;53444;45.822;16.092;2023-07-02T10:15:24;5.85;;;3.83;;
66585;SDS011;53444;45.822;16.092;2023-07-02T10:17:55;4.47;;;3.72;;
66585;SDS011;53444;45.822;16.092;2023-07-02T10:20:31;4.82;;;3.78;;
66585;SDS011;53444;45.822;16.092;2023-07-02T10:22:59;4.32;;;3.70;;
66585;SDS011;53444;45.822;16.092;2023-07-02T10:25:27;5.37;;;3.90;;
66585;SDS011;53444;45.822;16.092;2023-07-02T10:27:56;6.72;;;4.93;;
66585;SDS011;53444;45.822;16.092;2023-07-02T10:30:34;4.65;;;3.60;;
66585;SDS011;53444;45.822;16.092;2023-07-02T10:33:07;5.38;;;3.65;;
66585;SDS011;53444;45.822;16.092;2023-07-02T10:35:34;6.20;;;4.00;;
66585;SDS011;53444;45.822;16.092;2023-07-02T10:38:01;5.50;;;4.23;;
66585;SDS011;53444;45.822;16.092;2023-07-02T10:40:28;4.97;;;3.10;;
66585;SDS011;53444;45.822;16.092;2023-07-02T10:42:57;4.50;;;3.38;;
66585;SDS011;53444;45.822;16.092;2023-07-02T10:45:30;4.85;;;3.58;;
66585;SDS011;53444;45.822;16.092;2023-07-02T10:47:57;6.15;;;4.15;;
66585;SDS011;53444;45.822;16.092;2023-07-02T10:50:24;5.47;;;3.57;;
66585;SDS011;53444;45.822;16.092;2023-07-02T10:52:53;4.90;;;3.65;;
66585;SDS011;53444;45.822;16.092;2023-07-02T10:55:20;5.78;;;4.07;;
66585;SDS011;53444;45.822;16.092;2023-07-02T10:57:48;4.75;;;3.58;;
66585;SDS011;53444;45.822;16.092;2023-07-02T11:00:17;4.90;;;3.70;;
66585;SDS011;53444;45.822;16.092;2023-07-02T11:02:45;5.13;;;3.97;;
66585;SDS011;53444;45.822;16.092;2023-07-02T11:05:11;6.53;;;3.65;;
66585;SDS011;53444;45.822;16.092;2023-07-02T11:07:38;4.55;;;3.75;;
66585;SDS011;53444;45.822;16.092;2023-07-02T11:10:05;5.50;;;3.67;;
66585;SDS011;53444;45.822;16.092;2023-07-02T11:12:32;6.63;;;4.60;;
66585;SDS011;53444;45.822;16.092;2023-07-02T11:15:08;6.93;;;4.60;;
66585;SDS011;53444;45.822;16.092;2023-07-02T11:17:36;7.18;;;4.90;;
66585;SDS011;53444;45.822;16.092;2023-07-02T11:20:05;6.30;;;4.10;;
66585;SDS011;53444;45.822;16.092;2023-07-02T11:22:34;4.97;;;3.60;;
66585;SDS011;53444;45.822;16.092;2023-07-02T11:25:13;5.63;;;4.30;;
66585;SDS011;53444;45.822;16.092;2023-07-02T11:27:41;5.73;;;3.70;;
66585;SDS011;53444;45.822;16.092;2023-07-02T11:30:09;5.05;;;4.00;;
66585;SDS011;53444;45.822;16.092;2023-07-02T11:32:48;5.88;;;3.97;;
66585;SDS011;53444;45.822;16.092;2023-07-02T11:35:15;6.05;;;4.35;;
66585;SDS011;53444;45.822;16.092;2023-07-02T11:37:42;6.05;;;4.32;;
66585;SDS011;53444;45.822;16.092;2023-07-02T11:40:11;4.43;;;3.50;;
66585;SDS011;53444;45.822;16.092;2023-07-02T11:42:38;7.60;;;4.80;;
66585;SDS011;53444;45.822;16.092;2023-07-02T11:45:05;5.75;;;4.18;;
66585;SDS011;53444;45.822;16.092;2023-07-02T11:47:33;5.32;;;4.10;;
66585;SDS011;53444;45.822;16.092;2023-07-02T11:50:00;5.38;;;4.53;;
66585;SDS011;53444;45.822;16.092;2023-07-02T11:52:27;5.03;;;3.83;;
66585;SDS011;53444;45.822;16.092;2023-07-02T11:54:54;6.68;;;4.72;;
66585;SDS011;53444;45.822;16.092;2023-07-02T11:57:20;5.15;;;4.05;;
66585;SDS011;53444;45.822;16.092;2023-07-02T11:59:47;6.22;;;4.35;;
66585;SDS011;53444;45.822;16.092;2023-07-02T12:02:14;7.13;;;5.07;;
66585;SDS011;53444;45.822;16.092;2023-07-02T12:04:41;8.97;;;4.90;;
66585;SDS011;53444;45.822;16.092;2023-07-02T12:07:09;4.93;;;3.80;;
66585;SDS011;53444;45.822;16.092;2023-07-02T12:09:36;7.68;;;4.82;;
66585;SDS011;53444;45.822;16.092;2023-07-02T12:12:03;5.97;;;4.32;;
66585;SDS011;53444;45.822;16.092;2023-07-02T12:14:31;5.20;;;3.90;;
66585;SDS011;53444;45.822;16.092;2023-07-02T12:16:57;6.00;;;3.77;;
66585;SDS011;53444;45.822;16.092;2023-07-02T12:19:24;6.15;;;4.45;;
66585;SDS011;53444;45.822;16.092;2023-07-02T12:21:51;6.40;;;4.28;;
66585;SDS011;53444;45.822;16.092;2023-07-02T12:24:19;5.30;;;4.13;;
66585;SDS011;53444;45.822;16.092;2023-07-02T12:26:45;5.43;;;3.78;;
66585;SDS011;53444;45.822;16.092;2023-07-02T12:29:12;7.40;;;4.70;;
66585;SDS011;53444;45.822;16.092;2023-07-02T12:31:38;6.25;;;4.18;;
66585;SDS011;53444;45.822;16.092;2023-07-02T12:34:05;6.22;;;4.57;;
66585;SDS011;53444;45.822;16.092;2023-07-02T12:36:31;5.85;;;4.22;;
66585;SDS011;53444;45.822;16.092;2023-07-02T12:38:58;5.50;;;3.88;;
66585;SDS011;53444;45.822;16.092;2023-07-02T12:41:26;6.43;;;4.60;;
66585;SDS011;53444;45.822;16.092;2023-07-02T12:43:53;5.55;;;4.22;;
66585;SDS011;53444;45.822;16.092;2023-07-02T12:46:20;7.15;;;4.00;;
66585;SDS011;53444;45.822;16.092;2023-07-02T12:48:46;6.00;;;4.40;;
66585;SDS011;53444;45.822;16.092;2023-07-02T12:51:13;5.85;;;4.07;;
66585;SDS011;53444;45.822;16.092;2023-07-02T12:53:39;5.77;;;4.40;;
66585;SDS011;53444;45.822;16.092;2023-07-02T12:56:06;5.65;;;4.15;;
66585;SDS011;53444;45.822;16.092;2023-07-02T12:58:34;6.20;;;3.95;;
66585;SDS011;53444;45.822;16.092;2023-07-02T13:01:01;5.35;;;4.18;;
66585;SDS011;53444;45.822;16.092;2023-07-02T13:03:29;4.97;;;3.97;;
66585;SDS011;53444;45.822;16.092;2023-07-02T13:05:56;6.20;;;4.17;;
66585;SDS011;53444;45.822;16.092;2023-07-02T13:08:23;6.10;;;4.40;;
66585;SDS011;53444;45.822;16.092;2023-07-02T13:10:50;5.05;;;3.75;;
66585;SDS011;53444;45.822;16.092;2023-07-02T13:13:16;6.05;;;4.43;;
66585;SDS011;53444;45.822;16.092;2023-07-02T13:15:44;5.70;;;4.32;;
66585;SDS011;53444;45.822;16.092;2023-07-02T13:18:11;5.53;;;4.10;;
66585;SDS011;53444;45.822;16.092;2023-07-02T13:20:37;6.10;;;4.25;;
66585;SDS011;53444;45.822;16.092;2023-07-02T13:23:04;6.47;;;4.10;;
66585;SDS011;53444;45.822;16.092;2023-07-02T13:25:30;5.10;;;3.90;;
66585;SDS011;53444;45.822;16.092;2023-07-02T13:27:57;4.43;;;3.70;;
66585;SDS011;53444;45.822;16.092;2023-07-02T13:30:24;8.53;;;4.23;;
66585;SDS011;53444;45.822;16.092;2023-07-02T13:32:53;4.78;;;4.10;;
66585;SDS011;53444;45.822;16.092;2023-07-02T13:35:20;5.55;;;4.40;;
66585;SDS011;53444;45.822;16.092;2023-07-02T13:37:47;7.00;;;4.72;;
66585;SDS011;53444;45.822;16.092;2023-07-02T13:40:14;5.00;;;3.95;;
66585;SDS011;53444;45.822;16.092;2023-07-02T13:42:41;4.83;;;3.90;;
66585;SDS011;53444;45.822;16.092;2023-07-02T13:45:08;6.15;;;4.40;;
66585;SDS011;53444;45.822;16.092;2023-07-02T13:47:35;5.28;;;4.00;;
66585;SDS011;53444;45.822;16.092;2023-07-02T13:50:04;5.75;;;4.55;;
66585;SDS011;53444;45.822;16.092;2023-07-02T13:52:32;5.55;;;4.30;;
66585;SDS011;53444;45.822;16.092;2023-07-02T13:54:58;5.73;;;4.17;;
66585;SDS011;53444;45.822;16.092;2023-07-02T13:57:25;6.20;;;4.38;;
66585;SDS011;53444;45.822;16.092;2023-07-02T13:59:53;4.85;;;4.13;;
66585;SDS011;53444;45.822;16.092;2023-07-02T14:02:20;6.55;;;4.47;;
66585;SDS011;53444;45.822;16.092;2023-07-02T14:04:46;4.95;;;4.13;;
66585;SDS011;53444;45.822;16.092;2023-07-02T14:07:13;5.77;;;4.07;;
66585;SDS011;53444;45.822;16.092;2023-07-02T14:09:40;5.70;;;4.57;;
66585;SDS011;53444;45.822;16.092;2023-07-02T14:12:07;6.15;;;4.22;;
66585;SDS011;53444;45.822;16.092;2023-07-02T14:14:34;4.72;;;3.72;;
66585;SDS011;53444;45.822;16.092;2023-07-02T14:17:02;5.78;;;4.20;;
66585;SDS011;53444;45.822;16.092;2023-07-02T14:19:29;5.83;;;4.40;;
66585;SDS011;53444;45.822;16.092;2023-07-02T14:21:55;5.63;;;4.25;;
66585;SDS011;53444;45.822;16.092;2023-07-02T14:24:22;5.47;;;3.92;;
66585;SDS011;53444;45.822;16.092;2023-07-02T14:26:49;5.60;;;4.65;;
66585;SDS011;53444;45.822;16.092;2023-07-02T14:29:15;5.78;;;4.28;;
66585;SDS011;53444;45.822;16.092;2023-07-02T14:31:42;5.83;;;4.27;;
66585;SDS011;53444;45.822;16.092;2023-07-02T14:34:10;5.72;;;4.63;;